createdAt,value
2018-06-05T00:01:00.476Z,8.77
2018-06-05T00:03:28.751Z,8.33
2018-06-05T00:05:57.166Z,8.40
2018-06-05T00:08:25.404Z,8.20
2018-06-05T00:10:53.643Z,8.77
2018-06-05T00:13:21.859Z,8.90
2018-06-05T00:15:50.132Z,9.30
2018-06-05T00:18:18.364Z,8.73
2018-06-05T00:20:46.578Z,8.77
2018-06-05T00:23:14.780Z,9.20
2018-06-05T00:25:42.936Z,9.20
2018-06-05T00:28:10.888Z,9.00
2018-06-05T00:30:39.091Z,9.30
2018-06-05T00:33:07.289Z,10.20
2018-06-05T00:35:35.731Z,9.33
2018-06-05T00:38:04.013Z,10.30
2018-06-05T00:40:32.202Z,9.23
2018-06-05T00:43:00.393Z,9.17
2018-06-05T00:45:29.832Z,9.97
2018-06-05T00:47:58.178Z,10.77
2018-06-05T00:50:26.427Z,10.63
2018-06-05T00:52:54.668Z,10.63
2018-06-05T00:55:22.970Z,10.00
2018-06-05T00:57:51.140Z,10.53
2018-06-05T01:00:19.304Z,10.83
2018-06-05T01:02:47.523Z,10.43
2018-06-05T01:05:15.832Z,11.10
2018-06-05T01:07:44.085Z,9.93
2018-06-05T01:10:12.298Z,10.77
2018-06-05T01:12:40.290Z,11.10
2018-06-05T01:15:08.506Z,11.13
2018-06-05T01:17:37.114Z,10.23
2018-06-05T01:20:05.352Z,11.07
2018-06-05T01:22:33.710Z,10.50
2018-06-05T01:25:01.941Z,10.63
2018-06-05T01:27:30.194Z,10.47
2018-06-05T01:29:58.955Z,10.80
2018-06-05T01:32:27.176Z,10.37
2018-06-05T01:34:55.400Z,11.07
2018-06-05T01:37:23.716Z,11.07
2018-06-05T01:39:51.925Z,10.87
2018-06-05T01:42:20.106Z,12.40
2018-06-05T01:44:48.319Z,10.50
2018-06-05T01:47:16.673Z,11.40
2018-06-05T01:49:44.884Z,10.07
2018-06-05T01:54:47.679Z,10.20
2018-06-05T01:57:15.960Z,10.27
2018-06-05T01:59:44.172Z,10.30
2018-06-05T02:02:12.417Z,10.60
2018-06-05T02:04:40.580Z,9.87
2018-06-05T02:07:08.848Z,10.40
2018-06-05T02:09:37.286Z,9.67
2018-06-05T02:12:05.461Z,10.10
2018-06-05T02:14:33.710Z,10.00
2018-06-05T02:17:01.954Z,9.80
2018-06-05T02:19:30.248Z,9.93
2018-06-05T02:21:59.086Z,9.57
2018-06-05T02:24:27.295Z,9.40
2018-06-05T02:26:55.594Z,8.73
2018-06-05T02:29:23.848Z,10.17
2018-06-05T02:31:52.129Z,9.80
2018-06-05T02:34:20.426Z,9.40
2018-06-05T02:36:48.782Z,9.27
2018-06-05T02:39:16.969Z,9.20
2018-06-05T02:41:45.252Z,9.33
2018-06-05T02:44:13.486Z,8.77
2018-06-05T02:46:41.904Z,8.60
2018-06-05T02:49:10.103Z,8.40
2018-06-05T02:51:38.393Z,6.73
2018-06-05T02:54:06.635Z,6.40
2018-06-05T02:56:34.679Z,6.80
2018-06-05T02:59:02.940Z,7.53
2018-06-05T03:01:31.228Z,6.70
2018-06-05T03:03:59.488Z,6.17
2018-06-05T03:06:29.181Z,6.07
2018-06-05T03:08:57.404Z,6.77
2018-06-05T03:11:25.961Z,6.20
2018-06-05T03:13:54.183Z,5.60
2018-06-05T03:16:22.636Z,6.23
2018-06-05T03:18:50.891Z,6.37
2018-06-05T03:21:19.226Z,5.53
2018-06-05T03:23:47.549Z,6.33
2018-06-05T03:26:15.936Z,6.07
2018-06-05T03:28:44.161Z,6.80
2018-06-05T03:31:12.493Z,6.30
2018-06-05T03:33:40.706Z,6.47
2018-06-05T03:36:09.083Z,6.83
2018-06-05T03:38:37.330Z,7.37
2018-06-05T03:41:05.778Z,7.83
2018-06-05T03:43:34.066Z,8.17
2018-06-05T03:46:02.431Z,7.50
2018-06-05T03:48:30.668Z,7.87
2018-06-05T03:50:59.169Z,9.37
2018-06-05T03:53:27.648Z,8.93
2018-06-05T03:55:57.026Z,8.83
2018-06-05T03:58:25.259Z,9.03
2018-06-05T04:00:53.607Z,8.90
2018-06-05T04:03:21.815Z,8.87
2018-06-05T04:05:50.049Z,9.63
2018-06-05T04:08:18.281Z,8.77
2018-06-05T04:10:46.496Z,9.13
2018-06-05T04:13:14.712Z,9.07
2018-06-05T04:15:42.738Z,9.13
2018-06-05T04:18:11.554Z,9.50
2018-06-05T04:20:39.753Z,9.40
2018-06-05T04:23:07.907Z,9.67
2018-06-05T04:25:36.293Z,9.53
2018-06-05T04:28:04.506Z,8.93
2018-06-05T04:30:32.728Z,8.70
2018-06-05T04:33:00.947Z,8.83
2018-06-05T04:35:29.285Z,8.37
2018-06-05T04:37:57.614Z,7.57
2018-06-05T04:40:25.846Z,7.33
2018-06-05T04:42:54.072Z,7.23
2018-06-05T04:45:22.331Z,7.00
2018-06-05T04:47:50.629Z,7.00
2018-06-05T04:50:18.786Z,6.30
2018-06-05T04:52:46.982Z,6.03
2018-06-05T04:55:15.261Z,5.20
2018-06-05T04:57:43.448Z,5.40
2018-06-05T05:00:11.414Z,5.10
2018-06-05T05:02:39.653Z,5.13
2018-06-05T05:05:07.973Z,5.07
2018-06-05T05:07:36.227Z,4.60
2018-06-05T05:10:04.376Z,5.73
2018-06-05T05:12:32.589Z,5.23
2018-06-05T05:15:00.758Z,5.57
2018-06-05T05:17:28.951Z,5.70
2018-06-05T05:19:57.163Z,5.93
2018-06-05T05:22:25.909Z,5.10
2018-06-05T05:24:54.132Z,5.63
2018-06-05T05:27:22.405Z,5.47
2018-06-05T05:29:50.669Z,5.40
2018-06-05T05:32:18.855Z,6.17
2018-06-05T05:34:47.091Z,5.10
2018-06-05T05:37:15.343Z,5.67
2018-06-05T05:39:43.591Z,5.47
2018-06-05T05:42:11.829Z,4.77
2018-06-05T05:44:40.040Z,4.77
2018-06-05T05:47:09.480Z,5.07
2018-06-05T05:49:37.633Z,5.50
2018-06-05T05:52:05.936Z,5.03
2018-06-05T05:54:34.121Z,4.93
2018-06-05T05:57:02.468Z,5.03
2018-06-05T05:59:30.731Z,4.77
2018-06-05T06:01:58.940Z,4.73
2018-06-05T06:04:27.187Z,5.03
2018-06-05T06:06:55.443Z,4.70
2018-06-05T06:09:23.611Z,4.87
2018-06-05T06:11:51.803Z,4.73
2018-06-05T06:14:20.004Z,4.33
2018-06-05T06:16:48.309Z,4.77
2018-06-05T06:19:16.755Z,4.23
2018-06-05T06:21:44.933Z,4.47
2018-06-05T06:24:13.189Z,3.93
2018-06-05T06:26:41.465Z,3.87
2018-06-05T06:29:09.668Z,4.57
2018-06-05T06:31:37.879Z,4.07
2018-06-05T06:34:06.075Z,4.37
2018-06-05T06:36:34.307Z,4.00
2018-06-05T06:39:02.573Z,4.13
2018-06-05T06:41:30.802Z,3.93
2018-06-05T06:43:59.026Z,4.23
2018-06-05T06:46:27.517Z,4.70
2018-06-05T06:48:55.833Z,3.90
2018-06-05T06:51:23.990Z,4.17
2018-06-05T06:53:52.193Z,3.93
2018-06-05T06:56:20.563Z,3.80
2018-06-05T06:58:48.819Z,3.90
2018-06-05T07:01:17.085Z,3.63
2018-06-05T07:03:45.298Z,3.73
2018-06-05T07:06:13.347Z,4.03
2018-06-05T07:08:41.508Z,3.70
2018-06-05T07:11:09.712Z,4.13
2018-06-05T07:13:37.943Z,3.37
2018-06-05T07:16:06.370Z,3.60
2018-06-05T07:18:34.569Z,3.43
2018-06-05T07:21:02.761Z,3.77
2018-06-05T07:23:30.959Z,3.47
2018-06-05T07:25:59.206Z,3.20
2018-06-05T07:28:28.362Z,3.70
2018-06-05T07:30:56.597Z,3.50
2018-06-05T07:33:24.789Z,3.87
2018-06-05T07:35:53.287Z,3.50
2018-06-05T07:38:21.636Z,4.73
2018-06-05T07:40:49.820Z,3.60
2018-06-05T07:43:18.063Z,3.30
2018-06-05T07:45:46.418Z,3.43
2018-06-05T07:48:14.645Z,3.33
2018-06-05T07:50:42.831Z,3.73
2018-06-05T07:53:11.082Z,3.30
2018-06-05T07:55:39.339Z,3.40
2018-06-05T07:58:07.530Z,3.40
2018-06-05T08:00:35.764Z,3.60
2018-06-05T08:03:03.936Z,4.00
2018-06-05T08:05:32.270Z,3.70
2018-06-05T08:08:00.463Z,4.27
2018-06-05T08:10:28.663Z,3.50
2018-06-05T08:12:56.883Z,3.60
2018-06-05T08:15:25.216Z,3.63
2018-06-05T08:17:53.523Z,3.40
2018-06-05T08:20:22.864Z,2.83
2018-06-05T08:22:53.100Z,3.33
2018-06-05T08:25:21.530Z,3.57
2018-06-05T08:27:49.811Z,3.17
2018-06-05T08:30:18.089Z,3.00
2018-06-05T08:32:46.862Z,3.27
2018-06-05T08:35:15.003Z,4.20
2018-06-05T08:37:43.215Z,3.50
2018-06-05T08:40:11.396Z,3.70
2018-06-05T08:42:39.615Z,3.50
2018-06-05T08:45:07.907Z,3.97
2018-06-05T08:47:36.160Z,3.87
2018-06-05T08:50:04.594Z,3.60
2018-06-05T08:52:32.830Z,3.60
2018-06-05T08:55:01.086Z,3.43
2018-06-05T08:57:29.415Z,3.17
2018-06-05T08:59:57.732Z,3.47
2018-06-05T09:02:25.956Z,3.07
2018-06-05T09:04:54.148Z,3.33
2018-06-05T09:07:22.415Z,4.00
2018-06-05T09:09:50.603Z,3.77
2018-06-05T09:12:18.559Z,4.10
2018-06-05T09:14:46.860Z,4.03
2018-06-05T09:17:15.083Z,3.80
2018-06-05T09:19:43.303Z,3.33
2018-06-05T09:22:11.294Z,3.63
2018-06-05T09:24:39.508Z,3.17
2018-06-05T09:27:07.804Z,3.07
2018-06-05T09:29:36.038Z,3.67
2018-06-05T09:32:04.334Z,3.43
2018-06-05T09:34:32.731Z,3.47
2018-06-05T09:37:01.141Z,3.87
2018-06-05T09:39:29.355Z,3.70
2018-06-05T09:41:57.604Z,3.50
2018-06-05T09:44:25.853Z,3.10
2018-06-05T09:46:53.905Z,3.93
2018-06-05T09:49:22.106Z,3.27
2018-06-05T09:51:50.353Z,3.40
2018-06-05T09:54:18.503Z,4.20
2018-06-05T09:56:46.851Z,4.43
2018-06-05T09:59:15.119Z,4.20
2018-06-05T10:01:43.254Z,3.90
2018-06-05T10:04:11.463Z,4.37
2018-06-05T10:06:39.737Z,4.23
2018-06-05T10:09:08.274Z,4.20
2018-06-05T10:11:37.313Z,3.93
2018-06-05T10:14:05.546Z,4.60
2018-06-05T10:16:33.923Z,4.50
2018-06-05T10:19:02.194Z,4.00
2018-06-05T10:21:30.340Z,4.60
2018-06-05T10:23:58.577Z,4.40
2018-06-05T10:26:26.992Z,3.93
2018-06-05T10:28:55.206Z,4.10
2018-06-05T10:31:24.151Z,4.60
2018-06-05T10:33:52.415Z,4.30
2018-06-05T10:36:21.051Z,4.57
2018-06-05T10:38:49.293Z,4.83
2018-06-05T10:41:17.555Z,4.20
2018-06-05T10:43:45.805Z,4.23
2018-06-05T10:46:14.297Z,4.53
2018-06-05T10:48:42.541Z,5.17
2018-06-05T10:51:11.152Z,4.53
2018-06-05T10:53:39.563Z,5.00
2018-06-05T10:56:07.889Z,5.00
2018-06-05T10:58:36.705Z,4.80
2018-06-05T11:01:04.945Z,4.70
2018-06-05T11:03:33.146Z,5.70
2018-06-05T11:06:01.404Z,5.57
2018-06-05T11:08:29.595Z,5.80
2018-06-05T11:10:57.794Z,5.93
2018-06-05T11:13:26.015Z,5.60
2018-06-05T11:15:54.008Z,5.80
2018-06-05T11:18:22.251Z,5.27
2018-06-05T11:20:50.439Z,5.77
2018-06-05T11:23:18.633Z,5.67
2018-06-05T11:25:47.029Z,6.23
2018-06-05T11:28:15.296Z,6.70
2018-06-05T11:30:43.482Z,5.70
2018-06-05T11:33:11.718Z,6.67
2018-06-05T11:35:40.183Z,5.80
2018-06-05T11:38:08.374Z,6.37
2018-06-05T11:40:36.562Z,5.63
2018-06-05T11:43:04.744Z,6.00
2018-06-05T11:45:33.035Z,6.33
2018-06-05T11:48:01.305Z,6.53
2018-06-05T11:50:29.587Z,6.87
2018-06-05T11:52:57.826Z,5.97
2018-06-05T11:55:26.179Z,6.30
2018-06-05T11:57:54.386Z,7.17
2018-06-05T12:00:22.621Z,6.53
2018-06-05T12:02:50.894Z,6.50
2018-06-05T12:05:19.284Z,6.57
2018-06-05T12:07:47.704Z,6.90
2018-06-05T12:10:16.084Z,6.57
2018-06-05T12:12:44.315Z,6.57
2018-06-05T12:15:12.543Z,6.23
2018-06-05T12:17:40.764Z,6.27
2018-06-05T12:20:08.648Z,6.70
2018-06-05T12:22:37.715Z,6.43
2018-06-05T12:25:06.109Z,6.10
2018-06-05T12:27:34.960Z,6.43
2018-06-05T12:30:03.190Z,6.33
2018-06-05T12:32:31.408Z,6.43
2018-06-05T12:34:59.734Z,7.03
2018-06-05T12:37:27.978Z,6.73
2018-06-05T12:39:56.507Z,6.30
2018-06-05T12:42:24.810Z,6.47
2018-06-05T12:44:52.999Z,6.70
2018-06-05T12:47:21.170Z,6.57
2018-06-05T12:49:49.406Z,6.67
2018-06-05T12:52:17.625Z,6.67
2018-06-05T12:54:46.258Z,7.30
2018-06-05T12:57:15.698Z,6.77
2018-06-05T12:59:43.870Z,6.47
2018-06-05T13:02:12.102Z,6.40
2018-06-05T13:04:40.360Z,6.13
2018-06-05T13:07:08.568Z,5.87
2018-06-05T13:09:36.753Z,5.80
2018-06-05T13:12:04.986Z,6.13
2018-06-05T13:14:33.115Z,6.53
2018-06-05T13:17:01.498Z,6.33
2018-06-05T13:19:29.799Z,5.87
2018-06-05T13:21:58.042Z,5.30
2018-06-05T13:24:26.258Z,5.53
2018-06-05T13:27:07.238Z,5.50
2018-06-05T13:29:35.487Z,5.57
2018-06-05T13:32:03.744Z,5.17
2018-06-05T13:34:31.946Z,4.87
2018-06-05T13:37:00.243Z,5.57
2018-06-05T13:39:28.384Z,4.93
2018-06-05T13:41:56.625Z,5.47
2018-06-05T13:44:25.322Z,5.37
2018-06-05T13:46:53.652Z,5.57
2018-06-05T13:49:21.833Z,5.70
2018-06-05T13:51:50.014Z,5.10
2018-06-05T13:54:18.249Z,5.47
2018-06-05T13:56:46.431Z,5.83
2018-06-05T13:59:14.637Z,6.00
2018-06-05T14:01:42.844Z,6.03
2018-06-05T14:04:11.062Z,5.87
2018-06-05T14:06:39.531Z,5.03
2018-06-05T14:09:08.337Z,5.40
2018-06-05T14:11:36.372Z,5.13
2018-06-05T14:14:04.838Z,4.90
2018-06-05T14:16:33.189Z,5.30
2018-06-05T14:19:01.469Z,5.20
2018-06-05T14:21:29.728Z,5.43
2018-06-05T14:23:58.002Z,5.60
2018-06-05T14:26:27.396Z,5.43
2018-06-05T14:28:55.903Z,6.03
2018-06-05T14:31:24.996Z,6.10
2018-06-05T14:33:53.221Z,5.10
2018-06-05T14:36:21.378Z,5.17
2018-06-05T14:38:49.380Z,5.53
2018-06-05T14:41:17.636Z,5.53
2018-06-05T14:43:45.796Z,5.30
2018-06-05T14:46:14.148Z,5.13
2018-06-05T14:48:42.375Z,5.10
2018-06-05T14:51:10.714Z,5.90
2018-06-05T14:53:38.971Z,5.50
2018-06-05T14:56:07.200Z,5.37
2018-06-05T14:58:35.435Z,4.97
2018-06-05T15:01:03.465Z,4.87
2018-06-05T15:03:31.654Z,5.77
2018-06-05T15:05:59.975Z,5.93
2018-06-05T15:08:28.193Z,4.93
2018-06-05T15:10:56.366Z,5.50
2018-06-05T15:13:24.590Z,6.00
2018-06-05T15:15:52.800Z,4.83
2018-06-05T15:18:21.082Z,4.53
2018-06-05T15:20:49.283Z,5.60
2018-06-05T15:23:17.736Z,5.50
2018-06-05T15:25:46.150Z,5.00
2018-06-05T15:28:14.388Z,5.37
2018-06-05T15:30:42.621Z,5.53
2018-06-05T15:33:10.896Z,4.73
2018-06-05T15:35:39.258Z,5.83
2018-06-05T15:38:07.577Z,4.80
2018-06-05T15:40:35.813Z,5.43
2018-06-05T15:43:04.076Z,5.80
2018-06-05T15:45:32.374Z,5.47
2018-06-05T15:48:00.611Z,5.10
2018-06-05T15:50:29.003Z,5.43
2018-06-05T15:52:57.167Z,5.70
2018-06-05T15:55:25.452Z,6.10
2018-06-05T15:57:53.746Z,5.57
2018-06-05T16:00:21.972Z,5.40
2018-06-05T16:02:50.180Z,5.90
2018-06-05T16:05:18.658Z,6.57
2018-06-05T16:07:47.270Z,6.93
2018-06-05T16:10:15.509Z,5.90
2018-06-05T16:12:43.679Z,5.53
2018-06-05T16:15:12.038Z,5.70
2018-06-05T16:17:40.316Z,5.37
2018-06-05T16:20:08.532Z,5.00
2018-06-05T16:22:36.755Z,5.17
2018-06-05T16:25:07.038Z,6.10
2018-06-05T16:27:35.279Z,6.03
2018-06-05T16:30:03.572Z,5.83
2018-06-05T16:32:31.798Z,6.10
2018-06-05T16:34:59.969Z,5.63
2018-06-05T16:37:28.145Z,6.17
2018-06-05T16:39:56.370Z,5.90
2018-06-05T16:42:24.626Z,6.30
2018-06-05T16:44:52.879Z,5.30
2018-06-05T16:47:21.115Z,6.13
2018-06-05T16:49:49.326Z,6.20
2018-06-05T16:52:17.552Z,5.67
2018-06-05T16:54:45.806Z,5.87
2018-06-05T16:57:14.199Z,6.13
2018-06-05T16:59:42.561Z,5.23
2018-06-05T17:02:10.980Z,5.37
2018-06-05T17:04:39.361Z,5.50
2018-06-05T17:07:07.491Z,6.17
2018-06-05T17:09:35.661Z,5.77
2018-06-05T17:12:03.822Z,6.17
2018-06-05T17:14:31.987Z,5.30
2018-06-05T17:17:00.411Z,5.33
2018-06-05T17:19:28.662Z,6.50
2018-06-05T17:21:56.929Z,5.60
2018-06-05T17:24:25.217Z,5.23
2018-06-05T17:26:53.416Z,5.67
2018-06-05T17:29:21.645Z,5.97
2018-06-05T17:31:49.911Z,5.80
2018-06-05T17:34:18.092Z,6.10
2018-06-05T17:36:47.383Z,6.30
2018-06-05T17:39:15.637Z,5.83
2018-06-05T17:41:44.022Z,6.03
2018-06-05T17:44:12.233Z,6.03
2018-06-05T17:46:40.449Z,5.87
2018-06-05T17:49:08.657Z,5.67
2018-06-05T17:51:36.965Z,6.30
2018-06-05T17:54:05.230Z,6.57
2018-06-05T17:56:33.313Z,7.27
2018-06-05T17:59:01.513Z,7.17
2018-06-05T18:01:30.562Z,6.80
2018-06-05T18:03:58.785Z,6.37
2018-06-05T18:06:26.763Z,6.73
2018-06-05T18:08:55.030Z,6.27
2018-06-05T18:11:23.332Z,5.90
2018-06-05T18:13:51.580Z,5.90
2018-06-05T18:16:20.118Z,5.95
2018-06-05T18:18:48.359Z,6.23
2018-06-05T18:21:16.731Z,6.53
2018-06-05T18:23:44.927Z,6.53
2018-06-05T18:26:13.288Z,6.83
2018-06-05T18:28:41.668Z,6.27
2018-06-05T18:31:09.911Z,5.70
2018-06-05T18:33:38.099Z,6.33
2018-06-05T18:36:06.503Z,6.27
2018-06-05T18:38:34.690Z,6.63
2018-06-05T18:41:02.859Z,6.57
2018-06-05T18:43:31.061Z,6.43
2018-06-05T18:45:59.491Z,7.30
2018-06-05T18:48:27.784Z,6.93
2018-06-05T18:50:56.498Z,6.77
2018-06-05T18:53:24.825Z,5.83
2018-06-05T18:55:53.188Z,6.33
2018-06-05T18:58:21.403Z,5.90
2018-06-05T19:00:49.639Z,6.50
2018-06-05T19:03:17.830Z,6.30
2018-06-05T19:05:46.178Z,6.03
2018-06-05T19:08:14.454Z,6.43
2018-06-05T19:10:42.861Z,7.63
2018-06-05T19:13:11.113Z,7.03
2018-06-05T19:15:39.457Z,6.47
2018-06-05T19:18:07.682Z,6.50
2018-06-05T19:20:35.952Z,6.80
2018-06-05T19:23:04.182Z,7.30
2018-06-05T19:25:32.573Z,7.27
2018-06-05T19:28:00.874Z,6.90
2018-06-05T19:30:29.215Z,7.67
2018-06-05T19:32:57.526Z,6.37
2018-06-05T19:35:26.969Z,6.80
2018-06-05T19:37:55.015Z,6.90
2018-06-05T19:40:23.176Z,7.17
2018-06-05T19:42:51.452Z,6.80
2018-06-05T19:45:19.817Z,6.20
2018-06-05T19:47:48.266Z,7.47
2018-06-05T19:50:16.793Z,6.40
2018-06-05T19:52:44.984Z,6.13
2018-06-05T19:55:13.261Z,6.37
2018-06-05T19:57:41.524Z,7.17
2018-06-05T20:00:09.933Z,7.00
2018-06-05T20:02:38.475Z,7.77
2018-06-05T20:05:06.759Z,7.27
2018-06-05T20:07:35.049Z,8.60
2018-06-05T20:10:03.557Z,7.03
2018-06-05T20:12:32.116Z,6.60
2018-06-05T20:15:00.526Z,6.70
2018-06-05T20:17:29.764Z,7.10
2018-06-05T20:19:58.053Z,7.20
2018-06-05T20:22:26.307Z,7.53
2018-06-05T20:24:54.734Z,7.97
2018-06-05T20:27:24.769Z,7.33
2018-06-05T20:29:53.018Z,6.70
2018-06-05T20:32:21.266Z,7.97
2018-06-05T20:34:49.700Z,7.97
2018-06-05T20:37:18.144Z,7.27
2018-06-05T20:39:46.385Z,7.80
2018-06-05T20:42:14.620Z,7.50
2018-06-05T20:44:42.859Z,7.40
2018-06-05T20:47:13.161Z,8.20
2018-06-05T20:49:41.343Z,6.87
2018-06-05T20:52:09.576Z,7.37
2018-06-05T20:54:38.040Z,7.27
2018-06-05T20:57:06.267Z,7.73
2018-06-05T20:59:34.460Z,7.63
2018-06-05T21:02:09.222Z,8.10
2018-06-05T21:04:37.557Z,8.50
2018-06-05T21:07:05.992Z,8.57
2018-06-05T21:09:35.175Z,7.83
2018-06-05T21:12:03.384Z,8.10
2018-06-05T21:14:31.707Z,7.67
2018-06-05T21:17:00.055Z,7.80
2018-06-05T21:19:28.240Z,7.33
2018-06-05T21:21:56.433Z,8.00
2018-06-05T21:24:24.781Z,7.30
2018-06-05T21:26:53.157Z,7.77
2018-06-05T21:29:21.375Z,7.70
2018-06-05T21:31:49.593Z,8.67
2018-06-05T21:34:17.846Z,8.03
2018-06-05T21:36:46.255Z,7.47
2018-06-05T21:39:14.484Z,7.40
2018-06-05T21:41:42.684Z,8.07
2018-06-05T21:44:10.927Z,7.10
2018-06-05T21:46:39.118Z,8.00
2018-06-05T21:49:07.355Z,7.07
2018-06-05T21:51:35.572Z,7.10
2018-06-05T21:54:03.795Z,7.23
2018-06-05T21:56:32.028Z,7.30
2018-06-05T21:59:00.254Z,7.93
2018-06-05T22:01:28.472Z,8.27
2018-06-05T22:03:56.636Z,7.13
2018-06-05T22:06:24.860Z,8.20
2018-06-05T22:08:53.011Z,7.40
2018-06-05T22:11:21.209Z,7.77
2018-06-05T22:13:49.474Z,7.70
2018-06-05T22:16:17.791Z,7.53
2018-06-05T22:18:45.747Z,7.20
2018-06-05T22:21:13.971Z,7.80
2018-06-05T22:23:42.345Z,7.23
2018-06-05T22:26:10.764Z,7.30
2018-06-05T22:28:39.096Z,7.43
2018-06-05T22:31:07.271Z,8.33
2018-06-05T22:33:35.605Z,6.90
2018-06-05T22:36:03.856Z,8.23
2018-06-05T22:38:32.033Z,7.67
2018-06-05T22:41:00.264Z,6.97
2018-06-05T22:43:28.544Z,7.53
2018-06-05T22:45:56.921Z,7.23
2018-06-05T22:48:25.132Z,7.93
2018-06-05T22:50:53.310Z,7.63
2018-06-05T22:53:21.599Z,6.80
2018-06-05T22:55:49.844Z,7.43
2018-06-05T22:58:18.029Z,7.43
2018-06-05T23:00:46.293Z,7.47
2018-06-05T23:03:14.575Z,9.13
2018-06-05T23:05:42.952Z,7.27
2018-06-05T23:08:11.214Z,7.63
2018-06-05T23:10:39.423Z,7.33
2018-06-05T23:13:07.646Z,7.40
2018-06-05T23:15:36.025Z,7.80
2018-06-05T23:18:04.192Z,8.97
2018-06-05T23:20:32.387Z,7.67
2018-06-05T23:23:00.584Z,8.10
2018-06-05T23:25:28.980Z,8.07
2018-06-05T23:27:57.227Z,7.20
2018-06-05T23:30:25.442Z,7.73
2018-06-05T23:32:53.638Z,7.30
2018-06-05T23:35:22.028Z,7.80
2018-06-05T23:37:50.255Z,7.30
2018-06-05T23:40:18.435Z,7.20
2018-06-05T23:42:46.690Z,7.27
2018-06-05T23:45:14.970Z,7.23
2018-06-05T23:47:43.528Z,7.73
2018-06-05T23:50:11.830Z,7.30
2018-06-05T23:52:40.093Z,7.50
2018-06-05T23:55:08.593Z,6.77
2018-06-05T23:57:36.763Z,7.00
